Time;durP1;ratioP1;P1;durP2;ratioP2;P2;SDS_P1;SDS_P2;PMS_P1;PMS_P2;Temp;Humidity;BMP_temperature;BMP_pressure;BME280_temperature;BME280_humidity;BME280_pressure;Samples;Min_cycle;Max_cycle;Signal;HPM_P1;HPM_P2
2022/03/30 00:02:03;;;;;;;13.27;5.30;;;;;;;;;;5094165;28;20073;-62
2022/03/30 00:04:29;;;;;;;9.73;5.03;;;;;;;;;;5102205;28;20078;-63
2022/03/30 00:06:55;;;;;;;10.07;5.40;;;;;;;;;;5105951;28;20405;-63
2022/03/30 00:09:21;;;;;;;15.10;6.15;;;;;;;;;;5114353;28;20109;-63
2022/03/30 00:11:47;;;;;;;13.27;5.68;;;;;;;;;;5113967;28;20409;-63
2022/03/30 00:14:13;;;;;;;10.48;5.70;;;;;;;;;;5114279;28;20031;-64
2022/03/30 00:16:40;;;;;;;11.82;5.90;;;;;;;;;;5114319;28;20024;-62
2022/03/30 00:19:06;;;;;;;14.27;6.60;;;;;;;;;;5114288;28;20066;-63
2022/03/30 00:21:32;;;;;;;13.55;6.28;;;;;;;;;;5114304;28;20027;-63
2022/03/30 00:23:58;;;;;;;13.18;6.30;;;;;;;;;;5114289;28;20112;-62
2022/03/30 00:26:24;;;;;;;9.95;6.05;;;;;;;;;;5112636;28;20031;-62
2022/03/30 00:28:50;;;;;;;10.90;6.18;;;;;;;;;;5093611;28;20032;-62
2022/03/30 00:31:18;;;;;;;9.32;5.68;;;;;;;;;;5093599;28;20070;-62
2022/03/30 00:33:46;;;;;;;9.43;5.80;;;;;;;;;;5093500;28;20040;-63
2022/03/30 00:36:13;;;;;;;11.73;5.78;;;;;;;;;;5093734;28;20021;-62
2022/03/30 00:38:39;;;;;;;10.80;6.53;;;;;;;;;;5093636;28;20098;-62
2022/03/30 00:41:05;;;;;;;14.98;7.47;;;;;;;;;;5093305;28;20082;-62
2022/03/30 00:43:33;;;;;;;10.30;6.22;;;;;;;;;;5093391;28;20020;-61
2022/03/30 00:45:59;;;;;;;9.80;6.22;;;;;;;;;;5093185;28;20104;-62
2022/03/30 00:48:25;;;;;;;13.65;7.53;;;;;;;;;;5093188;28;20020;-62
2022/03/30 00:50:52;;;;;;;12.18;6.90;;;;;;;;;;5097999;28;20016;-62
2022/03/30 00:53:18;;;;;;;11.95;6.65;;;;;;;;;;5113562;28;20020;-61
2022/03/30 00:55:44;;;;;;;9.70;6.13;;;;;;;;;;5113567;28;20027;-61
2022/03/30 00:58:10;;;;;;;10.85;5.88;;;;;;;;;;5113383;28;20073;-62
2022/03/30 01:00:36;;;;;;;11.35;6.00;;;;;;;;;;5113193;28;20027;-63
2022/03/30 01:03:02;;;;;;;13.45;7.20;;;;;;;;;;5113329;28;20099;-62
2022/03/30 01:05:28;;;;;;;9.10;5.50;;;;;;;;;;5113407;28;20024;-62
2022/03/30 01:07:57;;;;;;;11.05;6.88;;;;;;;;;;5108746;28;20055;-63
2022/03/30 01:10:24;;;;;;;12.48;6.07;;;;;;;;;;5092936;28;20016;-62
2022/03/30 01:12:52;;;;;;;10.68;6.72;;;;;;;;;;5092899;28;20386;-62
2022/03/30 01:15:19;;;;;;;11.65;6.30;;;;;;;;;;5092752;28;20020;-63
2022/03/30 01:17:45;;;;;;;10.18;6.00;;;;;;;;;;5091821;28;20012;-61
2022/03/30 01:20:12;;;;;;;10.73;5.50;;;;;;;;;;5092655;28;20030;-62
2022/03/30 01:22:39;;;;;;;11.48;6.63;;;;;;;;;;5074354;28;20095;-62
2022/03/30 01:25:06;;;;;;;11.95;5.75;;;;;;;;;;5092528;28;20083;-62
2022/03/30 01:27:32;;;;;;;10.68;6.00;;;;;;;;;;5092250;28;20020;-62
2022/03/30 01:32:43;;;;;;;9.57;6.03;;;;;;;;;;5092160;28;20117;-62
2022/03/30 01:35:13;;;;;;;9.55;5.97;;;;;;;;;;5092351;28;20024;-62
2022/03/30 01:37:39;;;;;;;11.40;6.28;;;;;;;;;;5092442;28;20016;-62
2022/03/30 01:40:06;;;;;;;11.88;6.63;;;;;;;;;;5092367;28;20053;-63
2022/03/30 01:42:32;;;;;;;11.73;6.22;;;;;;;;;;5092465;28;20028;-63
2022/03/30 01:44:58;;;;;;;10.85;6.28;;;;;;;;;;5092606;28;20051;-63
2022/03/30 01:47:24;;;;;;;11.82;6.28;;;;;;;;;;5092387;28;20035;-63
2022/03/30 01:49:51;;;;;;;14.07;6.68;;;;;;;;;;5092293;28;20080;-63
2022/03/30 01:52:18;;;;;;;10.43;6.40;;;;;;;;;;5092061;28;20035;-62
2022/03/30 01:54:44;;;;;;;11.35;6.78;;;;;;;;;;5091888;28;20036;-62
2022/03/30 01:57:13;;;;;;;9.88;5.95;;;;;;;;;;5091856;28;20491;-62
2022/03/30 01:59:41;;;;;;;10.77;6.45;;;;;;;;;;5092088;28;20495;-62
2022/03/30 02:02:08;;;;;;;10.27;6.22;;;;;;;;;;5091888;28;20169;-62
2022/03/30 02:04:35;;;;;;;9.98;6.00;;;;;;;;;;5091913;28;20020;-62
2022/03/30 02:07:02;;;;;;;11.18;6.57;;;;;;;;;;5091806;28;20475;-62
2022/03/30 02:09:28;;;;;;;10.35;5.85;;;;;;;;;;5091798;28;20044;-62
2022/03/30 02:11:54;;;;;;;10.80;6.00;;;;;;;;;;5091639;28;20069;-62
2022/03/30 02:14:20;;;;;;;9.95;6.53;;;;;;;;;;5091553;28;20036;-62
2022/03/30 02:16:46;;;;;;;10.52;6.05;;;;;;;;;;5091651;28;20471;-62
2022/03/30 02:19:13;;;;;;;10.25;6.35;;;;;;;;;;5091866;28;20478;-62
2022/03/30 02:21:39;;;;;;;9.90;6.43;;;;;;;;;;5091666;28;20020;-63
2022/03/30 02:24:06;;;;;;;11.77;6.30;;;;;;;;;;5091621;28;20047;-63
2022/03/30 02:26:32;;;;;;;10.43;6.05;;;;;;;;;;5091459;28;20027;-63
2022/03/30 02:28:58;;;;;;;9.32;6.47;;;;;;;;;;5091444;28;20590;-63
2022/03/30 02:31:24;;;;;;;8.60;5.55;;;;;;;;;;5091701;28;20059;-63
2022/03/30 02:33:51;;;;;;;12.55;6.20;;;;;;;;;;5091065;28;20044;-63
2022/03/30 02:36:17;;;;;;;9.13;5.53;;;;;;;;;;5091386;28;20475;-63
2022/03/30 02:38:44;;;;;;;10.38;6.15;;;;;;;;;;5091637;28;20046;-62
2022/03/30 02:41:10;;;;;;;10.25;6.03;;;;;;;;;;5091500;28;20137;-62
2022/03/30 02:43:37;;;;;;;10.38;5.43;;;;;;;;;;5091314;28;20047;-62
2022/03/30 02:46:04;;;;;;;10.88;6.18;;;;;;;;;;5091226;28;20020;-62
2022/03/30 02:48:32;;;;;;;8.65;5.90;;;;;;;;;;5091352;28;20690;-62
2022/03/30 02:51:00;;;;;;;7.32;5.13;;;;;;;;;;5091213;28;20479;-62
2022/03/30 02:53:26;;;;;;;9.05;5.38;;;;;;;;;;5091224;28;20047;-63
2022/03/30 02:55:53;;;;;;;7.78;5.30;;;;;;;;;;5090729;28;20099;-62
2022/03/30 02:58:19;;;;;;;9.73;5.97;;;;;;;;;;5090369;28;20024;-62
2022/03/30 03:00:45;;;;;;;10.38;5.57;;;;;;;;;;5072700;28;20380;-62
2022/03/30 03:03:12;;;;;;;10.18;5.70;;;;;;;;;;5090631;28;20024;-62
2022/03/30 03:05:38;;;;;;;8.55;5.28;;;;;;;;;;5090777;28;20483;-63
2022/03/30 03:08:08;;;;;;;12.35;6.22;;;;;;;;;;5093666;28;20478;-62
2022/03/30 03:10:35;;;;;;;10.57;5.55;;;;;;;;;;5090777;28;20032;-63
2022/03/30 03:13:03;;;;;;;8.75;5.53;;;;;;;;;;5090708;28;20059;-63
2022/03/30 03:15:30;;;;;;;12.10;5.70;;;;;;;;;;5090982;28;20386;-63
2022/03/30 03:17:56;;;;;;;15.65;6.20;;;;;;;;;;5091102;28;20020;-63
2022/03/30 03:20:22;;;;;;;10.63;6.30;;;;;;;;;;5091067;28;20046;-63
2022/03/30 03:22:48;;;;;;;11.50;6.38;;;;;;;;;;5090577;28;20490;-62
2022/03/30 03:25:15;;;;;;;9.27;6.03;;;;;;;;;;5091079;28;20028;-62
2022/03/30 03:27:41;;;;;;;9.65;5.85;;;;;;;;;;5090762;28;20031;-62
2022/03/30 03:30:07;;;;;;;9.75;5.93;;;;;;;;;;5091101;28;20024;-63
2022/03/30 03:32:34;;;;;;;11.55;6.50;;;;;;;;;;5090953;28;20082;-63
2022/03/30 03:35:00;;;;;;;9.85;6.03;;;;;;;;;;5091144;28;20491;-63
2022/03/30 03:37:26;;;;;;;10.82;6.03;;;;;;;;;;5091314;28;20035;-63
2022/03/30 03:39:52;;;;;;;10.85;5.45;;;;;;;;;;5091069;28;20085;-64
2022/03/30 03:42:18;;;;;;;8.32;5.32;;;;;;;;;;5094134;28;20028;-63
2022/03/30 03:44:44;;;;;;;11.20;6.25;;;;;;;;;;5094729;28;20024;-63
2022/03/30 03:47:10;;;;;;;9.88;5.80;;;;;;;;;;5094605;28;20020;-63
2022/03/30 03:49:37;;;;;;;9.70;6.20;;;;;;;;;;5094413;28;20425;-63
2022/03/30 03:52:03;;;;;;;9.32;5.47;;;;;;;;;;5094253;28;20085;-62
2022/03/30 03:54:29;;;;;;;9.32;5.90;;;;;;;;;;5094106;28;20529;-62
2022/03/30 03:56:55;;;;;;;10.90;5.88;;;;;;;;;;5094191;28;20242;-63
2022/03/30 03:59:21;;;;;;;8.60;6.22;;;;;;;;;;5094408;28;20083;-63
2022/03/30 04:01:47;;;;;;;9.45;5.20;;;;;;;;;;5094421;28;20040;-62
2022/03/30 04:04:14;;;;;;;10.77;6.13;;;;;;;;;;5094137;28;20107;-63
2022/03/30 04:06:40;;;;;;;10.70;6.05;;;;;;;;;;5094052;28;20406;-62
2022/03/30 04:09:06;;;;;;;11.23;6.07;;;;;;;;;;5094237;28;20031;-63
2022/03/30 04:11:32;;;;;;;9.15;6.03;;;;;;;;;;5093910;28;20097;-63
2022/03/30 04:13:58;;;;;;;9.70;6.15;;;;;;;;;;5093864;28;20398;-62
2022/03/30 04:16:24;;;;;;;9.35;5.93;;;;;;;;;;5094079;28;20024;-63
2022/03/30 04:18:50;;;;;;;9.63;6.15;;;;;;;;;;5093808;28;20120;-62
2022/03/30 04:21:16;;;;;;;10.30;5.95;;;;;;;;;;5093651;28;20024;-63
2022/03/30 04:23:42;;;;;;;9.68;5.70;;;;;;;;;;5093811;28;20091;-62
2022/03/30 04:26:12;;;;;;;9.75;6.32;;;;;;;;;;5093752;28;20024;-63
2022/03/30 04:28:40;;;;;;;11.27;6.00;;;;;;;;;;5093498;28;20012;-63
2022/03/30 04:31:10;;;;;;;11.38;5.43;;;;;;;;;;5093726;28;20028;-63
2022/03/30 04:33:36;;;;;;;10.18;6.35;;;;;;;;;;5093024;28;20556;-63
2022/03/30 04:36:02;;;;;;;9.13;5.65;;;;;;;;;;5093459;28;20024;-63
2022/03/30 04:38:29;;;;;;;11.30;5.88;;;;;;;;;;5093532;28;20074;-63
2022/03/30 04:40:55;;;;;;;12.35;6.43;;;;;;;;;;5093546;28;20084;-63
2022/03/30 04:43:21;;;;;;;10.90;6.53;;;;;;;;;;5093181;28;20067;-62
2022/03/30 04:45:47;;;;;;;10.77;6.75;;;;;;;;;;5092884;28;20023;-62
2022/03/30 04:48:13;;;;;;;10.13;5.60;;;;;;;;;;5092933;28;20035;-63
2022/03/30 04:50:39;;;;;;;10.70;6.50;;;;;;;;;;5093166;28;20073;-62
2022/03/30 04:53:05;;;;;;;14.98;6.28;;;;;;;;;;5092090;28;20032;-62
2022/03/30 04:55:31;;;;;;;10.70;6.18;;;;;;;;;;5092746;28;20058;-63
2022/03/30 04:57:58;;;;;;;10.32;5.97;;;;;;;;;;5092603;28;20069;-63
2022/03/30 05:00:24;;;;;;;13.27;6.88;;;;;;;;;;5092662;28;20398;-63
2022/03/30 05:02:50;;;;;;;11.90;6.45;;;;;;;;;;5092645;28;20028;-63
2022/03/30 05:05:16;;;;;;;11.93;6.13;;;;;;;;;;5092518;28;20019;-62
2022/03/30 05:07:42;;;;;;;9.63;6.07;;;;;;;;;;5092421;28;20020;-63
2022/03/30 05:10:12;;;;;;;10.77;6.45;;;;;;;;;;5092525;28;20024;-63
2022/03/30 05:12:39;;;;;;;11.25;6.28;;;;;;;;;;5091875;28;20019;-62
2022/03/30 05:15:05;;;;;;;9.02;6.13;;;;;;;;;;5092122;28;20536;-62
2022/03/30 05:17:31;;;;;;;9.27;5.85;;;;;;;;;;5092288;28;20046;-62
2022/03/30 05:19:58;;;;;;;13.02;6.90;;;;;;;;;;5091963;28;20404;-63
2022/03/30 05:22:25;;;;;;;10.60;6.57;;;;;;;;;;5092262;28;20438;-62
2022/03/30 05:24:51;;;;;;;11.88;6.55;;;;;;;;;;5092188;28;20471;-62
2022/03/30 05:27:17;;;;;;;15.63;6.32;;;;;;;;;;5100414;28;20576;-62
2022/03/30 05:29:43;;;;;;;12.23;6.50;;;;;;;;;;5112281;28;20431;-62
2022/03/30 05:32:09;;;;;;;10.50;6.28;;;;;;;;;;5112019;28;20027;-63
2022/03/30 05:34:35;;;;;;;11.18;6.43;;;;;;;;;;5111488;28;20051;-63
2022/03/30 05:37:01;;;;;;;8.80;5.28;;;;;;;;;;5111565;28;20107;-63
2022/03/30 05:39:28;;;;;;;11.73;6.40;;;;;;;;;;5100874;28;20036;-63
2022/03/30 05:41:54;;;;;;;10.93;6.07;;;;;;;;;;5091532;28;20447;-63
2022/03/30 05:44:20;;;;;;;11.50;6.20;;;;;;;;;;5091224;28;20016;-62
2022/03/30 05:46:46;;;;;;;8.48;5.18;;;;;;;;;;5091418;28;20042;-63
2022/03/30 05:49:12;;;;;;;10.23;6.05;;;;;;;;;;5091053;28;20107;-63
2022/03/30 05:51:38;;;;;;;9.68;5.65;;;;;;;;;;5090947;28;20028;-62
2022/03/30 05:54:05;;;;;;;10.15;5.20;;;;;;;;;;5090913;28;20109;-63
2022/03/30 05:59:16;;;;;;;11.38;6.18;;;;;;;;;;5091482;28;20035;-62
2022/03/30 06:01:42;;;;;;;15.80;6.03;;;;;;;;;;5099219;28;20047;-62
2022/03/30 06:04:08;;;;;;;11.88;5.93;;;;;;;;;;5099448;28;20016;-62
2022/03/30 06:06:34;;;;;;;13.20;6.03;;;;;;;;;;5110773;28;20390;-62
2022/03/30 06:09:02;;;;;;;13.35;6.55;;;;;;;;;;5112190;28;20018;-63
2022/03/30 06:11:28;;;;;;;11.85;6.45;;;;;;;;;;5112417;28;20020;-63
2022/03/30 06:13:56;;;;;;;13.63;7.18;;;;;;;;;;5111989;28;20035;-63
2022/03/30 06:16:22;;;;;;;11.38;5.88;;;;;;;;;;5111885;28;20016;-62
2022/03/30 06:18:48;;;;;;;11.40;6.85;;;;;;;;;;5112000;28;20540;-62
2022/03/30 06:21:14;;;;;;;13.27;6.80;;;;;;;;;;5112004;28;20024;-62
2022/03/30 06:23:40;;;;;;;10.95;6.10;;;;;;;;;;5111507;28;20466;-61
2022/03/30 06:26:07;;;;;;;13.57;6.55;;;;;;;;;;5111324;28;20031;-62
2022/03/30 06:28:34;;;;;;;11.02;6.32;;;;;;;;;;5092675;28;20161;-62
2022/03/30 06:31:00;;;;;;;11.25;5.85;;;;;;;;;;5091734;28;20012;-62
2022/03/30 06:33:26;;;;;;;19.20;6.50;;;;;;;;;;5107071;28;20048;-62
2022/03/30 06:35:52;;;;;;;11.60;6.10;;;;;;;;;;5111509;28;20023;-62
2022/03/30 06:38:19;;;;;;;11.63;6.03;;;;;;;;;;5092242;28;20168;-62
2022/03/30 06:40:46;;;;;;;20.13;6.78;;;;;;;;;;5091568;28;20108;-62
2022/03/30 06:43:13;;;;;;;13.90;6.70;;;;;;;;;;5072952;28;20020;-62
2022/03/30 06:45:39;;;;;;;11.85;5.85;;;;;;;;;;5091037;28;20486;-63
2022/03/30 06:48:06;;;;;;;16.42;6.45;;;;;;;;;;5090783;28;20020;-62
2022/03/30 06:50:32;;;;;;;11.93;7.22;;;;;;;;;;5090936;28;20059;-63
2022/03/30 06:52:59;;;;;;;14.63;7.47;;;;;;;;;;5090854;28;20013;-63
2022/03/30 06:55:25;;;;;;;12.70;6.45;;;;;;;;;;5090757;28;20024;-63
2022/03/30 06:57:51;;;;;;;11.02;6.28;;;;;;;;;;5091029;28;20016;-63
2022/03/30 07:00:17;;;;;;;11.98;7.10;;;;;;;;;;5091731;28;20491;-63
2022/03/30 07:02:44;;;;;;;18.90;7.88;;;;;;;;;;5091519;28;20024;-63
2022/03/30 07:05:10;;;;;;;39.63;11.10;;;;;;;;;;5091411;28;20051;-63
2022/03/30 07:10:23;;;;;;;28.35;9.20;;;;;;;;;;5099816;28;20077;-63
2022/03/30 07:12:50;;;;;;;23.38;8.30;;;;;;;;;;5099169;28;20481;-62
2022/03/30 07:15:17;;;;;;;68.53;10.75;;;;;;;;;;5082590;28;20391;-62
2022/03/30 07:17:46;;;;;;;42.22;9.38;;;;;;;;;;5094991;28;20020;-62
2022/03/30 07:20:14;;;;;;;31.33;9.20;;;;;;;;;;5105660;28;20044;-62
2022/03/30 07:22:40;;;;;;;35.95;9.63;;;;;;;;;;5097994;28;20016;-62
2022/03/30 07:25:06;;;;;;;30.88;8.98;;;;;;;;;;5095202;28;20020;-61
2022/03/30 07:27:32;;;;;;;30.70;9.10;;;;;;;;;;5102788;28;20019;-63
2022/03/30 07:29:58;;;;;;;25.90;9.77;;;;;;;;;;5102592;28;20016;-63
2022/03/30 07:32:24;;;;;;;33.30;11.27;;;;;;;;;;5105682;28;20016;-62
2022/03/30 07:34:53;;;;;;;23.05;9.98;;;;;;;;;;5114777;28;20616;-62
2022/03/30 07:37:20;;;;;;;31.10;11.48;;;;;;;;;;5115322;28;20370;-61
2022/03/30 07:39:46;;;;;;;30.42;10.50;;;;;;;;;;5100691;28;20127;-61
2022/03/30 07:42:12;;;;;;;25.77;9.77;;;;;;;;;;5095070;28;20099;-61
2022/03/30 07:44:38;;;;;;;27.13;10.25;;;;;;;;;;5094972;28;20020;-62
2022/03/30 07:47:05;;;;;;;30.92;10.63;;;;;;;;;;5094199;28;20530;-61
2022/03/30 07:49:31;;;;;;;20.80;9.52;;;;;;;;;;5094389;28;20042;-61
2022/03/30 07:52:00;;;;;;;29.15;9.75;;;;;;;;;;5094511;28;20020;-62
2022/03/30 07:54:26;;;;;;;20.70;8.70;;;;;;;;;;5094610;28;20059;-61
2022/03/30 07:56:52;;;;;;;27.30;10.70;;;;;;;;;;5094745;28;20025;-62
2022/03/30 07:59:18;;;;;;;29.08;9.27;;;;;;;;;;5103545;28;20027;-61
2022/03/30 08:01:44;;;;;;;27.95;9.52;;;;;;;;;;5114620;28;20030;-61
2022/03/30 08:04:11;;;;;;;28.30;8.50;;;;;;;;;;5114469;28;20120;-61
2022/03/30 08:06:37;;;;;;;21.63;8.85;;;;;;;;;;5114691;28;20028;-62
2022/03/30 08:09:03;;;;;;;24.30;8.02;;;;;;;;;;5114659;28;20035;-62
2022/03/30 08:11:30;;;;;;;20.85;8.45;;;;;;;;;;5110506;28;20398;-62
2022/03/30 08:13:56;;;;;;;18.15;8.60;;;;;;;;;;5107929;28;20531;-62
2022/03/30 08:16:23;;;;;;;21.55;8.65;;;;;;;;;;5102842;28;20070;-63
2022/03/30 08:18:49;;;;;;;18.52;7.85;;;;;;;;;;5103985;28;20413;-63
2022/03/30 08:24:10;;;;;;;18.45;7.70;;;;;;;;;;5023047;28;20025;-63
2022/03/30 08:26:41;;;;;;;24.63;8.77;;;;;;;;;;5102987;28;20028;-62
2022/03/30 08:29:08;;;;;;;21.30;7.72;;;;;;;;;;5102473;28;20024;-62
2022/03/30 08:31:34;;;;;;;17.73;7.25;;;;;;;;;;5103995;28;20015;-63
2022/03/30 08:34:01;;;;;;;19.13;8.15;;;;;;;;;;5103042;28;20050;-62
2022/03/30 08:36:29;;;;;;;17.38;7.25;;;;;;;;;;5101737;28;20422;-62
2022/03/30 08:38:56;;;;;;;18.40;7.85;;;;;;;;;;5102296;28;20023;-62
2022/03/30 08:41:22;;;;;;;17.75;8.90;;;;;;;;;;5103600;28;20080;-62
2022/03/30 08:43:49;;;;;;;16.52;8.13;;;;;;;;;;5107350;28;20582;-62
2022/03/30 08:46:15;;;;;;;16.20;8.00;;;;;;;;;;5102474;28;20028;-62
2022/03/30 08:48:42;;;;;;;16.58;6.95;;;;;;;;;;5104657;28;20489;-62
2022/03/30 08:51:10;;;;;;;19.00;7.32;;;;;;;;;;5113314;28;20031;-62
2022/03/30 08:53:37;;;;;;;18.55;8.13;;;;;;;;;;5112454;28;20027;-63
2022/03/30 08:56:03;;;;;;;15.10;7.20;;;;;;;;;;5113072;28;20483;-63
2022/03/30 08:58:29;;;;;;;16.45;6.68;;;;;;;;;;5097390;28;20110;-62
2022/03/30 09:01:06;;;;;;;17.30;7.47;;;;;;;;;;5092756;28;20501;-62
2022/03/30 09:03:33;;;;;;;17.40;6.80;;;;;;;;;;5093543;28;20031;-61
2022/03/30 09:06:00;;;;;;;15.63;7.03;;;;;;;;;;5093434;28;20467;-62
2022/03/30 09:08:27;;;;;;;13.77;6.10;;;;;;;;;;5093402;28;20070;-62
2022/03/30 09:10:54;;;;;;;13.20;6.88;;;;;;;;;;5093367;28;20074;-62
2022/03/30 09:13:20;;;;;;;12.18;6.60;;;;;;;;;;5093113;28;20409;-61
2022/03/30 09:15:47;;;;;;;15.50;6.63;;;;;;;;;;5092737;28;20020;-61
2022/03/30 09:18:15;;;;;;;13.25;6.30;;;;;;;;;;5093076;28;20012;-61
2022/03/30 09:20:42;;;;;;;12.90;7.15;;;;;;;;;;5092840;28;20513;-61
2022/03/30 09:23:09;;;;;;;16.35;5.75;;;;;;;;;;5093467;28;20091;-64
2022/03/30 09:25:35;;;;;;;15.48;7.03;;;;;;;;;;5105719;28;20531;-63
2022/03/30 09:28:02;;;;;;;13.60;6.50;;;;;;;;;;5092000;28;20024;-62
2022/03/30 09:30:28;;;;;;;12.93;5.85;;;;;;;;;;5099040;28;20019;-62
2022/03/30 09:32:56;;;;;;;13.27;5.63;;;;;;;;;;5112182;28;20019;-63
2022/03/30 09:35:29;;;;;;;12.88;6.28;;;;;;;;;;5112553;28;20020;-62
2022/03/30 09:37:59;;;;;;;14.00;6.30;;;;;;;;;;5111903;28;20531;-62
2022/03/30 09:40:33;;;;;;;13.25;6.60;;;;;;;;;;5112493;28;20032;-63
2022/03/30 09:43:18;;;;;;;12.02;6.40;;;;;;;;;;5102363;28;20463;-63
2022/03/30 09:45:45;;;;;;;14.93;6.70;;;;;;;;;;5091965;28;20081;-63
2022/03/30 09:48:15;;;;;;;12.77;6.32;;;;;;;;;;5092000;28;20100;-63
2022/03/30 09:50:49;;;;;;;12.63;6.13;;;;;;;;;;5091894;28;20020;-62
2022/03/30 09:53:16;;;;;;;13.82;6.32;;;;;;;;;;5091581;28;20040;-62
2022/03/30 09:55:53;;;;;;;14.25;6.57;;;;;;;;;;5091522;28;20024;-62
2022/03/30 09:58:20;;;;;;;15.15;6.93;;;;;;;;;;5091663;28;20023;-63
2022/03/30 10:01:02;;;;;;;17.38;7.38;;;;;;;;;;5091644;28;20038;-62
2022/03/30 10:03:37;;;;;;;12.32;6.72;;;;;;;;;;5091500;28;20032;-63
2022/03/30 10:06:04;;;;;;;14.77;7.28;;;;;;;;;;5108356;28;20027;-61
2022/03/30 10:08:31;;;;;;;12.88;6.57;;;;;;;;;;5112908;28;20028;-61
2022/03/30 10:10:58;;;;;;;14.20;7.20;;;;;;;;;;5112859;28;20081;-61
2022/03/30 10:13:24;;;;;;;14.32;6.63;;;;;;;;;;5105971;28;20036;-63
2022/03/30 10:15:52;;;;;;;10.77;5.63;;;;;;;;;;5112179;28;20363;-62
2022/03/30 10:18:23;;;;;;;11.15;6.00;;;;;;;;;;5109169;28;20015;-62
2022/03/30 10:20:51;;;;;;;12.50;6.10;;;;;;;;;;5112281;28;20022;-62
2022/03/30 10:23:20;;;;;;;12.15;6.72;;;;;;;;;;5106175;28;20070;-62
2022/03/30 10:26:08;;;;;;;12.95;7.22;;;;;;;;;;5090418;28;20024;-61
2022/03/30 10:28:40;;;;;;;15.10;6.90;;;;;;;;;;5091656;28;20463;-62
2022/03/30 10:31:06;;;;;;;14.38;7.25;;;;;;;;;;5073068;28;20055;-62
2022/03/30 10:33:34;;;;;;;12.00;6.03;;;;;;;;;;5091886;28;20055;-62
2022/03/30 10:36:20;;;;;;;11.65;6.32;;;;;;;;;;5094535;28;20033;-62
2022/03/30 10:39:12;;;;;;;11.57;6.13;;;;;;;;;;5092029;28;20040;-62
2022/03/30 10:41:51;;;;;;;12.95;5.95;;;;;;;;;;5070336;28;20043;-62
2022/03/30 10:44:36;;;;;;;11.68;5.90;;;;;;;;;;5092317;28;20054;-62
2022/03/30 10:47:11;;;;;;;10.32;5.43;;;;;;;;;;5092005;28;20488;-62
2022/03/30 10:49:41;;;;;;;10.50;5.95;;;;;;;;;;5092663;28;20052;-62
2022/03/30 10:52:26;;;;;;;11.95;6.40;;;;;;;;;;5095859;28;20012;-62
2022/03/30 10:55:05;;;;;;;11.73;6.13;;;;;;;;;;5095407;28;20383;-62
2022/03/30 10:57:49;;;;;;;9.73;5.45;;;;;;;;;;5095804;28;20035;-62
2022/03/30 11:00:18;;;;;;;12.68;6.15;;;;;;;;;;5096140;28;20117;-62
2022/03/30 11:02:44;;;;;;;8.63;5.05;;;;;;;;;;5096075;28;20030;-62
2022/03/30 11:05:11;;;;;;;10.80;5.57;;;;;;;;;;5095723;28;20055;-62
2022/03/30 11:07:38;;;;;;;10.18;5.28;;;;;;;;;;5095857;28;20048;-62
2022/03/30 11:10:21;;;;;;;9.95;5.57;;;;;;;;;;5095974;28;20035;-62
2022/03/30 11:12:56;;;;;;;12.07;5.65;;;;;;;;;;5106450;28;20035;-62
2022/03/30 11:15:23;;;;;;;11.35;4.80;;;;;;;;;;5110741;28;20128;-62
2022/03/30 11:17:49;;;;;;;11.50;5.45;;;;;;;;;;5095561;28;20439;-63
2022/03/30 11:20:16;;;;;;;10.27;4.78;;;;;;;;;;5095163;28;20028;-61
2022/03/30 11:22:45;;;;;;;11.27;5.22;;;;;;;;;;5102987;28;20008;-61
2022/03/30 11:25:13;;;;;;;8.98;5.35;;;;;;;;;;5100944;28;20020;-61
2022/03/30 11:27:39;;;;;;;9.20;5.40;;;;;;;;;;5093831;28;20044;-61
2022/03/30 11:30:15;;;;;;;8.80;5.18;;;;;;;;;;5093873;28;20027;-61
2022/03/30 11:33:01;;;;;;;9.80;4.65;;;;;;;;;;5113433;28;20027;-62
2022/03/30 11:35:32;;;;;;;9.43;4.68;;;;;;;;;;5114924;28;20036;-62
2022/03/30 11:37:58;;;;;;;12.02;5.05;;;;;;;;;;5115688;28;20379;-61
2022/03/30 11:40:25;;;;;;;9.95;5.03;;;;;;;;;;5115547;28;20031;-61
2022/03/30 11:42:52;;;;;;;10.70;4.90;;;;;;;;;;5097701;28;20154;-62
2022/03/30 11:45:20;;;;;;;21.85;8.57;;;;;;;;;;5094796;28;20032;-61
2022/03/30 11:47:47;;;;;;;48.63;13.48;;;;;;;;;;5094806;28;20043;-61
2022/03/30 11:50:15;;;;;;;33.92;11.73;;;;;;;;;;5094927;28;20023;-61
2022/03/30 11:52:44;;;;;;;30.30;10.70;;;;;;;;;;5094785;28;20020;-62
2022/03/30 11:55:10;;;;;;;31.10;9.93;;;;;;;;;;5094381;28;20050;-62
2022/03/30 11:57:43;;;;;;;24.83;8.15;;;;;;;;;;5094451;28;20023;-62
2022/03/30 12:00:10;;;;;;;17.98;7.82;;;;;;;;;;5093961;28;20106;-63
2022/03/30 12:02:41;;;;;;;19.58;7.70;;;;;;;;;;5093203;28;20450;-63
2022/03/30 12:05:08;;;;;;;15.90;7.20;;;;;;;;;;5093864;28;20008;-62
2022/03/30 12:07:35;;;;;;;15.25;6.75;;;;;;;;;;5094642;28;20103;-62
2022/03/30 12:10:02;;;;;;;18.65;7.55;;;;;;;;;;5094550;28;20012;-62
2022/03/30 12:12:35;;;;;;;19.05;7.28;;;;;;;;;;5094240;28;20024;-62
2022/03/30 12:15:03;;;;;;;16.80;7.13;;;;;;;;;;5101797;28;20032;-72
2022/03/30 12:17:30;;;;;;;12.55;6.38;;;;;;;;;;5114752;28;20023;-62
2022/03/30 12:19:56;;;;;;;16.00;6.47;;;;;;;;;;5114713;28;20050;-61
2022/03/30 12:22:23;;;;;;;18.70;7.20;;;;;;;;;;5114606;28;20023;-62
2022/03/30 12:24:49;;;;;;;17.35;7.03;;;;;;;;;;5114585;28;20474;-61
2022/03/30 12:27:15;;;;;;;14.80;5.90;;;;;;;;;;5107656;28;20034;-61
2022/03/30 12:29:44;;;;;;;17.83;6.38;;;;;;;;;;5102356;28;20016;-62
2022/03/30 12:32:11;;;;;;;14.73;5.88;;;;;;;;;;5103131;28;20073;-61
2022/03/30 12:34:40;;;;;;;14.90;6.18;;;;;;;;;;5110164;28;20044;-61
2022/03/30 12:37:06;;;;;;;14.90;6.28;;;;;;;;;;5114269;28;20068;-62
2022/03/30 12:39:39;;;;;;;17.13;6.43;;;;;;;;;;5113765;28;20027;-62
2022/03/30 12:42:05;;;;;;;12.68;5.75;;;;;;;;;;5113955;28;20398;-62
2022/03/30 12:44:32;;;;;;;12.82;6.18;;;;;;;;;;5114126;28;20027;-62
2022/03/30 12:47:01;;;;;;;12.80;6.10;;;;;;;;;;5113636;28;20016;-61
2022/03/30 12:49:33;;;;;;;15.98;6.75;;;;;;;;;;5102688;28;20016;-62
2022/03/30 12:52:10;;;;;;;12.02;5.82;;;;;;;;;;5104512;28;20020;-61
2022/03/30 12:54:36;;;;;;;15.02;6.00;;;;;;;;;;5102726;28;20038;-61
2022/03/30 12:57:03;;;;;;;10.73;5.43;;;;;;;;;;5104313;28;20036;-61
2022/03/30 12:59:29;;;;;;;11.30;5.90;;;;;;;;;;5102182;28;20085;-62
2022/03/30 13:01:55;;;;;;;14.45;5.60;;;;;;;;;;5103559;28;20015;-62
2022/03/30 13:04:22;;;;;;;14.50;6.00;;;;;;;;;;5103857;28;20055;-62
2022/03/30 13:07:07;;;;;;;14.48;5.70;;;;;;;;;;5083178;28;20167;-61
2022/03/30 13:09:34;;;;;;;13.02;5.78;;;;;;;;;;5092617;28;20028;-62
2022/03/30 13:12:00;;;;;;;12.38;5.70;;;;;;;;;;5097935;28;20044;-62
2022/03/30 13:14:27;;;;;;;11.15;5.63;;;;;;;;;;5100022;28;20046;-62
2022/03/30 13:17:02;;;;;;;11.35;5.63;;;;;;;;;;5102060;28;20016;-62
2022/03/30 13:19:28;;;;;;;14.77;6.05;;;;;;;;;;5101320;28;20051;-62
2022/03/30 13:21:58;;;;;;;13.43;5.55;;;;;;;;;;5098886;28;20047;-61
2022/03/30 13:24:25;;;;;;;10.10;5.45;;;;;;;;;;5112502;28;20604;-61
2022/03/30 13:26:53;;;;;;;10.80;5.45;;;;;;;;;;5103949;28;20020;-62
2022/03/30 13:29:19;;;;;;;10.82;5.57;;;;;;;;;;5105717;28;20023;-61
2022/03/30 13:31:48;;;;;;;12.40;5.13;;;;;;;;;;5112185;28;20023;-61
2022/03/30 13:34:16;;;;;;;10.10;5.18;;;;;;;;;;5094246;28;20040;-61
2022/03/30 13:36:42;;;;;;;11.80;4.97;;;;;;;;;;5092063;28;20032;-61
2022/03/30 13:39:09;;;;;;;9.98;4.97;;;;;;;;;;5091688;28;20028;-62
2022/03/30 13:41:35;;;;;;;12.20;5.35;;;;;;;;;;5091677;28;20107;-61
2022/03/30 13:44:02;;;;;;;12.43;5.10;;;;;;;;;;5091905;28;20524;-61
2022/03/30 13:46:28;;;;;;;8.68;5.07;;;;;;;;;;5094289;28;20028;-61
2022/03/30 13:48:54;;;;;;;11.07;5.00;;;;;;;;;;5112356;28;20031;-62
2022/03/30 13:51:21;;;;;;;13.27;5.13;;;;;;;;;;5112496;28;20023;-62
2022/03/30 13:53:48;;;;;;;13.18;4.97;;;;;;;;;;5112353;28;20024;-61
2022/03/30 13:56:15;;;;;;;16.80;5.50;;;;;;;;;;5112022;28;20528;-61
2022/03/30 13:58:41;;;;;;;14.57;5.75;;;;;;;;;;5105159;28;20031;-62
2022/03/30 14:01:08;;;;;;;13.68;5.95;;;;;;;;;;5092489;28;20077;-61
2022/03/30 14:03:35;;;;;;;18.60;5.53;;;;;;;;;;5112188;28;20055;-62
2022/03/30 14:06:01;;;;;;;15.57;5.88;;;;;;;;;;5101696;28;20024;-61
2022/03/30 14:08:28;;;;;;;14.10;5.35;;;;;;;;;;5091767;28;20048;-61
2022/03/30 14:10:55;;;;;;;17.42;5.80;;;;;;;;;;5091992;28;20024;-61
2022/03/30 14:13:21;;;;;;;11.88;5.32;;;;;;;;;;5091625;28;20036;-61
2022/03/30 14:15:48;;;;;;;15.02;5.28;;;;;;;;;;5091567;28;20020;-61
2022/03/30 14:18:15;;;;;;;18.42;5.25;;;;;;;;;;5106013;28;20054;-61
2022/03/30 14:20:42;;;;;;;12.27;4.60;;;;;;;;;;5111981;28;20474;-62
2022/03/30 14:23:09;;;;;;;15.25;4.63;;;;;;;;;;5111877;28;20393;-61
2022/03/30 14:25:36;;;;;;;15.45;4.95;;;;;;;;;;5111489;28;20099;-62
2022/03/30 14:28:03;;;;;;;11.02;5.10;;;;;;;;;;5111290;28;20024;-61
2022/03/30 14:30:32;;;;;;;16.48;5.15;;;;;;;;;;5095701;28;20027;-61
2022/03/30 14:32:59;;;;;;;14.80;5.15;;;;;;;;;;5111726;28;20091;-61
2022/03/30 14:35:29;;;;;;;14.38;4.70;;;;;;;;;;5100614;28;20051;-62
2022/03/30 14:37:56;;;;;;;10.90;4.80;;;;;;;;;;5094083;28;20066;-63
2022/03/30 14:40:22;;;;;;;13.55;5.28;;;;;;;;;;5103787;28;20027;-62
2022/03/30 14:42:48;;;;;;;13.32;5.30;;;;;;;;;;5112253;28;20089;-61
2022/03/30 14:45:15;;;;;;;10.10;4.20;;;;;;;;;;5112296;28;20019;-61